Time;durP1;ratioP1;P1;durP2;ratioP2;P2;SDS_P1;SDS_P2;PMS_P1;PMS_P2;Temp;Humidity;BMP_temperature;BMP_pressure;BME280_temperature;BME280_humidity;BME280_pressure;Samples;Min_cycle;Max_cycle;Signal;HPM_P1;HPM_P2
2023/12/10 00:01:28;;;;;;;;;;;;;;;3.90;90.96;99533.19;4163570;28;20032;-71
2023/12/10 00:03:30;;;;;;;;;;;;;;;3.90;90.96;99544.75;4157179;28;19969;-72
2023/12/10 00:07:55;;;;;;;;;;;;;;;3.87;91.38;99550.41;4162676;28;20371;-71
2023/12/10 00:10:00;;;;;;;;;;;;;;;3.88;91.05;99553.91;4162167;28;20019;-72
2023/12/10 00:12:02;;;;;;;;;;;;;;;3.87;91.15;99534.38;4161809;28;20368;-71
2023/12/10 00:14:05;;;;;;;;;;;;;;;3.85;91.40;99535.53;4161776;28;19932;-72
2023/12/10 00:16:48;;;;;;;;;;;;;;;3.85;91.56;99527.53;4162468;28;20019;-70
2023/12/10 00:19:21;;;;;;;;;;;;;;;3.87;91.17;99537.06;4161001;28;20021;-72
2023/12/10 00:21:33;;;;;;;;;;;;;;;3.86;91.16;99532.69;4162933;28;20016;-70
2023/12/10 00:23:57;;;;;;;;;;;;;;;3.85;91.56;99535.53;4163400;28;19956;-72
2023/12/10 00:25:59;;;;;;;;;;;;;;;3.84;91.66;99540.06;4163590;28;20701;-72
2023/12/10 00:28:02;;;;;;;;;;;;;;;3.85;91.37;99535.53;4163228;28;20365;-72
2023/12/10 00:32:20;;;;;;;;;;;;;;;3.87;91.26;99550.41;4127462;28;20028;-72
2023/12/10 00:34:31;;;;;;;;;;;;;;;3.88;91.45;99543.22;4128058;28;19953;-71
2023/12/10 00:36:37;;;;;;;;;;;;;;;3.87;91.41;99547.75;4128771;28;20012;-70
2023/12/10 00:39:05;;;;;;;;;;;;;;;3.85;91.50;99549.72;4152812;22;19934;-72
2023/12/10 00:41:19;;;;;;;;;;;;;;;3.87;91.26;99550.41;4137928;28;20020;-71
2023/12/10 00:43:27;;;;;;;;;;;;;;;3.87;91.18;99536.19;4138045;28;20052;-72
2023/12/10 00:45:32;;;;;;;;;;;;;;;3.86;91.50;99539.88;4138053;28;20340;-72
2023/12/10 00:49:59;;;;;;;;;;;;;;;3.86;91.44;99540.72;4129093;28;20008;-71
2023/12/10 00:52:02;;;;;;;;;;;;;;;3.83;91.30;99540.22;4138169;28;20024;-72
2023/12/10 00:54:05;;;;;;;;;;;;;;;3.83;91.50;99537.53;4136658;28;20017;-73
2023/12/10 00:56:25;;;;;;;;;;;;;;;3.79;91.65;99537.88;4137808;28;20029;-73
2023/12/10 00:58:34;;;;;;;;;;;;;;;3.79;91.77;99529.00;4120952;28;20029;-72
2023/12/10 01:00:36;;;;;;;;;;;;;;;3.79;91.73;99532.53;4275671;23;20519;-71
2023/12/10 01:02:38;;;;;;;;;;;;;;;3.76;91.90;99521.31;4170337;28;20019;-71
2023/12/10 01:04:41;;;;;;;;;;;;;;;3.76;91.67;99523.97;4153367;28;20020;-71
2023/12/10 01:06:43;;;;;;;;;;;;;;;3.76;91.84;99516.81;4170305;28;20019;-73
2023/12/10 01:08:55;;;;;;;;;;;;;;;3.77;92.06;99521.16;4171057;28;20008;-72
2023/12/10 01:11:00;;;;;;;;;;;;;;;3.78;91.69;99511.31;4167877;28;20027;-72
2023/12/10 01:13:03;;;;;;;;;;;;;;;3.80;91.49;99514.66;4169348;28;20450;-72
2023/12/10 01:15:06;;;;;;;;;;;;;;;3.79;91.90;99516.50;4170651;28;20017;-72
2023/12/10 01:17:08;;;;;;;;;;;;;;;3.77;91.86;99523.81;4170079;28;20104;-72
2023/12/10 01:19:22;;;;;;;;;;;;;;;3.77;91.78;99507.78;4272846;23;20204;-71
2023/12/10 01:21:50;;;;;;;;;;;;;;;3.75;91.77;99512.47;4136385;28;19933;-71
2023/12/10 01:26:26;;;;;;;;;;;;;;;3.77;91.96;99523.00;4168062;28;20414;-74
2023/12/10 01:28:30;;;;;;;;;;;;;;;3.75;92.01;99525.81;4171375;28;20015;-72
2023/12/10 01:30:31;;;;;;;;;;;;;;;3.74;91.92;99520.66;4151819;28;20024;-71
2023/12/10 01:33:00;;;;;;;;;;;;;;;3.76;92.14;99527.50;4155939;28;19925;-71
2023/12/10 01:35:02;;;;;;;;;;;;;;;3.74;91.82;99526.00;4155127;28;20029;-73
2023/12/10 01:37:12;;;;;;;;;;;;;;;3.73;91.83;99532.31;4154298;28;19930;-72
2023/12/10 01:39:31;;;;;;;;;;;;;;;3.72;92.16;99536.00;4154716;28;20401;-71
2023/12/10 01:41:34;;;;;;;;;;;;;;;3.69;92.34;99534.50;4152442;28;20028;-71
2023/12/10 01:44:00;;;;;;;;;;;;;;;3.69;92.25;99529.16;4154556;28;19929;-71
2023/12/10 01:46:13;;;;;;;;;;;;;;;;;;;;;
2023/12/10 01:48:28;;;;;;;;;;;;;;;3.70;92.34;99529.97;4155882;28;20509;-71
2023/12/10 01:50:30;;;;;;;;;;;;;;;3.70;92.32;99533.50;4211743;22;20024;-71
2023/12/10 01:52:33;;;;;;;;;;;;;;;3.69;92.22;99539.81;4169936;28;20016;-72
2023/12/10 01:55:01;;;;;;;;;;;;;;;3.66;92.45;99544.66;4173572;28;20419;-73
2023/12/10 01:57:16;;;;;;;;;;;;;;;;;;;;;
2023/12/10 02:00:00;;;;;;;;;;;;;;;3.65;92.49;99567.00;4387758;22;19949;-71
2023/12/10 02:02:03;;;;;;;;;;;;;;;3.63;92.72;99558.34;4171650;28;20895;-73
2023/12/10 02:04:05;;;;;;;;;;;;;;;3.63;92.52;99558.34;4172933;28;20020;-72
2023/12/10 02:06:08;;;;;;;;;;;;;;;3.61;92.80;99561.16;4172549;28;20488;-73
2023/12/10 02:08:10;;;;;;;;;;;;;;;3.58;92.66;99570.31;4154342;28;20032;-71
2023/12/10 02:10:12;;;;;;;;;;;;;;;3.60;92.48;99567.50;4171786;28;20020;-71
2023/12/10 02:12:15;;;;;;;;;;;;;;;3.57;92.66;99582.03;4172376;28;20032;-71
2023/12/10 02:14:17;;;;;;;;;;;;;;;3.53;92.55;99574.50;4172348;28;20015;-71
2023/12/10 02:16:19;;;;;;;;;;;;;;;3.53;92.55;99575.31;4172387;28;20032;-72
2023/12/10 02:18:21;;;;;;;;;;;;;;;3.54;92.63;99574.34;4172727;28;20007;-72
2023/12/10 02:20:23;;;;;;;;;;;;;;;3.50;92.31;99553.44;4171986;28;20023;-72
2023/12/10 02:22:26;;;;;;;;;;;;;;;3.47;92.55;99549.25;4172074;28;19929;-72
2023/12/10 02:24:37;;;;;;;;;;;;;;;3.44;92.33;99549.56;4154297;28;20020;-72
2023/12/10 02:26:40;;;;;;;;;;;;;;;3.45;92.63;99556.59;4171703;28;20032;-71
2023/12/10 02:28:41;;;;;;;;;;;;;;;3.43;92.17;99548.75;4172111;28;20028;-71
2023/12/10 02:30:43;;;;;;;;;;;;;;;3.40;92.20;99559.75;4154187;28;20029;-71
2023/12/10 02:32:45;;;;;;;;;;;;;;;3.37;92.58;99556.53;4170814;28;20024;-73
2023/12/10 02:34:47;;;;;;;;;;;;;;;3.33;92.51;99561.38;4172043;28;20012;-72
2023/12/10 02:36:50;;;;;;;;;;;;;;;3.31;92.80;99578.53;4154492;28;20392;-72
2023/12/10 02:38:52;;;;;;;;;;;;;;;3.28;92.90;99570.88;4171953;28;20058;-71
2023/12/10 02:40:54;;;;;;;;;;;;;;;3.26;92.94;99568.34;4171018;28;20031;-72
2023/12/10 02:42:58;;;;;;;;;;;;;;;3.23;92.77;99569.50;4171440;28;19925;-71
2023/12/10 02:44:59;;;;;;;;;;;;;;;3.23;92.92;99563.34;4171850;28;20367;-72
2023/12/10 02:47:01;;;;;;;;;;;;;;;3.24;93.23;99570.31;4172255;28;20019;-70
2023/12/10 02:49:03;;;;;;;;;;;;;;;3.23;92.98;99566.00;4171327;28;20071;-71
2023/12/10 02:51:06;;;;;;;;;;;;;;;3.22;93.39;99558.97;4171228;28;20011;-71
2023/12/10 02:53:07;;;;;;;;;;;;;;;3.21;93.49;99563.50;4153345;28;20514;-69
2023/12/10 02:55:10;;;;;;;;;;;;;;;3.19;93.44;99560.13;4169607;28;20023;-71
2023/12/10 02:57:12;;;;;;;;;;;;;;;3.17;93.56;99561.28;4171831;28;20486;-71
2023/12/10 02:59:15;;;;;;;;;;;;;;;3.16;93.61;99560.44;4171354;28;20031;-71
2023/12/10 03:01:17;;;;;;;;;;;;;;;3.16;93.46;99560.44;4169840;28;20029;-71
2023/12/10 03:03:19;;;;;;;;;;;;;;;3.19;93.72;99565.47;4170968;28;20482;-70
2023/12/10 03:05:20;;;;;;;;;;;;;;;3.17;93.70;99571.97;4170427;28;20452;-71
2023/12/10 03:07:22;;;;;;;;;;;;;;;3.15;93.59;99574.78;4171529;28;20592;-72
2023/12/10 03:09:25;;;;;;;;;;;;;;;3.16;93.77;99571.13;4171326;28;20473;-71
2023/12/10 03:11:27;;;;;;;;;;;;;;;3.15;93.72;99574.78;4171307;28;20081;-70
2023/12/10 03:13:29;;;;;;;;;;;;;;;3.15;93.99;99582.81;4171531;28;20044;-70
2023/12/10 03:15:32;;;;;;;;;;;;;;;3.15;93.87;99574.78;4171907;28;20389;-71
2023/12/10 03:17:34;;;;;;;;;;;;;;;3.16;94.11;99588.97;4171999;28;20016;-72
2023/12/10 03:19:38;;;;;;;;;;;;;;;3.13;93.90;99589.28;4170671;28;20028;-71
2023/12/10 03:21:40;;;;;;;;;;;;;;;3.11;94.25;99592.09;4171491;28;20431;-72
2023/12/10 03:23:42;;;;;;;;;;;;;;;3.09;94.36;99582.56;4170516;28;19925;-71
2023/12/10 03:25:45;;;;;;;;;;;;;;;3.08;94.18;99597.75;4171107;28;20038;-72
2023/12/10 03:27:47;;;;;;;;;;;;;;;3.08;94.53;99597.75;4170385;28;20024;-71
2023/12/10 03:29:49;;;;;;;;;;;;;;;3.08;94.48;99600.41;4169973;28;20028;-71
2023/12/10 03:31:51;;;;;;;;;;;;;;;3.08;94.63;99613.75;4171227;28;20339;-71
2023/12/10 03:33:53;;;;;;;;;;;;;;;3.08;94.50;99604.94;4170988;28;20024;-70
2023/12/10 03:35:55;;;;;;;;;;;;;;;3.08;94.89;99602.25;4171005;28;20024;-71
2023/12/10 03:37:57;;;;;;;;;;;;;;;3.08;94.81;99607.59;4170378;28;20362;-71
2023/12/10 03:39:59;;;;;;;;;;;;;;;3.06;94.79;99608.56;4168284;28;20040;-72
2023/12/10 03:42:01;;;;;;;;;;;;;;;3.04;95.05;99607.91;4170440;28;20024;-71
2023/12/10 03:44:03;;;;;;;;;;;;;;;3.04;95.01;99607.03;4170688;28;19933;-72
2023/12/10 03:46:05;;;;;;;;;;;;;;;3.05;94.98;99612.22;4171245;28;20006;-71
2023/12/10 03:48:09;;;;;;;;;;;;;;;3.04;94.88;99607.03;4136701;28;20013;-71
2023/12/10 03:50:11;;;;;;;;;;;;;;;3.02;94.86;99603.72;4170791;28;20019;-72
2023/12/10 03:52:13;;;;;;;;;;;;;;;3.04;95.17;99607.91;4170736;28;20450;-71
2023/12/10 03:54:15;;;;;;;;;;;;;;;3.01;95.06;99604.69;4170285;28;20016;-72
2023/12/10 03:56:17;;;;;;;;;;;;;;;3.01;95.06;99602.03;4169975;28;20023;-70
2023/12/10 03:58:18;;;;;;;;;;;;;;;2.98;95.24;99608.53;4169559;28;20023;-71
2023/12/10 04:00:20;;;;;;;;;;;;;;;2.97;95.14;99612.19;4169837;28;20015;-71
2023/12/10 04:02:22;;;;;;;;;;;;;;;2.98;95.27;99611.19;4134337;28;20012;-71
2023/12/10 04:04:25;;;;;;;;;;;;;;;2.99;95.66;99617.34;4171756;28;20381;-71
2023/12/10 04:06:27;;;;;;;;;;;;;;;2.97;95.48;99614.00;4169438;28;20347;-72
2023/12/10 04:08:29;;;;;;;;;;;;;;;2.96;95.48;99609.66;4171084;28;20023;-71
2023/12/10 04:10:32;;;;;;;;;;;;;;;2.95;95.57;99618.69;4170130;28;20016;-71
2023/12/10 04:12:34;;;;;;;;;;;;;;;2.95;95.97;99618.69;4169341;28;20015;-71
2023/12/10 04:14:36;;;;;;;;;;;;;;;2.97;95.90;99624.69;4170584;28;20020;-71
2023/12/10 04:16:38;;;;;;;;;;;;;;;2.96;96.07;99631.88;4170067;28;20021;-71
2023/12/10 04:18:40;;;;;;;;;;;;;;;2.96;96.17;99631.00;4152593;28;20008;-71
2023/12/10 04:20:44;;;;;;;;;;;;;;;2.95;96.15;99621.34;4170394;28;20025;-71
2023/12/10 04:22:46;;;;;;;;;;;;;;;2.95;95.99;99626.69;4170570;28;20396;-71
2023/12/10 04:24:48;;;;;;;;;;;;;;;2.93;96.17;99632.16;4170268;28;19929;-70
2023/12/10 04:26:50;;;;;;;;;;;;;;;2.94;96.38;99639.16;4136995;28;20031;-70
2023/12/10 04:28:51;;;;;;;;;;;;;;;2.95;96.27;99645.34;4170994;28;20016;-71
2023/12/10 04:30:53;;;;;;;;;;;;;;;2.94;96.51;99639.16;4170293;28;20372;-71
2023/12/10 04:32:55;;;;;;;;;;;;;;;2.95;96.43;99648.03;4169802;28;20012;-71
2023/12/10 04:34:57;;;;;;;;;;;;;;;2.94;96.58;99641.81;4169982;28;20023;-71
2023/12/10 04:37:00;;;;;;;;;;;;;;;2.95;96.58;99640.00;4170225;28;20011;-70
2023/12/10 04:39:03;;;;;;;;;;;;;;;2.94;96.94;99633.00;4170352;28;20032;-73
2023/12/10 04:41:05;;;;;;;;;;;;;;;2.94;97.04;99641.81;4169797;28;20007;-71
2023/12/10 04:43:06;;;;;;;;;;;;;;;2.95;97.04;99642.69;4169323;28;20024;-71
2023/12/10 04:45:08;;;;;;;;;;;;;;;2.96;96.87;99641.66;4170148;28;19925;-72
2023/12/10 04:47:09;;;;;;;;;;;;;;;2.95;96.94;99643.50;4168989;28;20019;-71
2023/12/10 04:49:11;;;;;;;;;;;;;;;2.99;97.10;99646.69;4170069;28;20455;-71
2023/12/10 04:51:13;;;;;;;;;;;;;;;2.98;97.06;99645.00;4169237;28;20012;-71
2023/12/10 04:53:17;;;;;;;;;;;;;;;2.99;97.14;99649.38;4170051;28;20374;-70
2023/12/10 04:55:19;;;;;;;;;;;;;;;2.98;96.98;99645.00;4170179;28;20031;-71
2023/12/10 04:57:21;;;;;;;;;;;;;;;2.97;97.07;99641.50;4170544;28;20621;-71
2023/12/10 04:59:23;;;;;;;;;;;;;;;2.98;97.26;99645.00;4169385;28;20027;-72
2023/12/10 05:01:25;;;;;;;;;;;;;;;2.98;97.38;99648.53;4170292;28;20019;-71
2023/12/10 05:03:28;;;;;;;;;;;;;;;2.98;97.53;99661.88;4170184;28;20028;-70
2023/12/10 05:05:29;;;;;;;;;;;;;;;2.98;97.59;99655.69;4170460;28;20024;-70
2023/12/10 05:07:31;;;;;;;;;;;;;;;3.00;97.33;99659.88;4169938;28;20023;-72
2023/12/10 05:09:34;;;;;;;;;;;;;;;3.01;97.33;99661.56;4169205;28;20025;-71
2023/12/10 05:11:36;;;;;;;;;;;;;;;3.00;97.57;99670.53;4169096;28;20015;-70
2023/12/10 05:13:38;;;;;;;;;;;;;;;3.00;97.34;99673.22;4168901;28;20369;-71
2023/12/10 05:15:40;;;;;;;;;;;;;;;3.02;97.42;99675.72;4170402;28;20020;-71
2023/12/10 05:17:42;;;;;;;;;;;;;;;3.03;97.64;99666.75;4152837;28;20521;-70
2023/12/10 05:19:44;;;;;;;;;;;;;;;3.05;97.60;99672.75;4169422;28;20024;-71
2023/12/10 05:21:46;;;;;;;;;;;;;;;3.05;97.64;99678.91;4169032;28;20020;-71
2023/12/10 05:23:48;;;;;;;;;;;;;;;3.05;97.45;99686.91;4169319;28;20015;-73
2023/12/10 05:25:52;;;;;;;;;;;;;;;3.06;97.50;99680.59;4169585;28;20430;-71
2023/12/10 05:27:53;;;;;;;;;;;;;;;3.06;97.60;99685.94;4168387;28;20015;-71
2023/12/10 05:29:55;;;;;;;;;;;;;;;3.06;97.80;99680.59;4171002;28;20020;-70
2023/12/10 05:31:57;;;;;;;;;;;;;;;3.05;97.74;99680.75;4172734;28;20037;-71
2023/12/10 05:33:59;;;;;;;;;;;;;;;3.05;97.89;99678.91;4172987;28;20020;-70
2023/12/10 05:36:02;;;;;;;;;;;;;;;3.07;98.02;99681.44;4173375;28;20372;-71
2023/12/10 05:38:06;;;;;;;;;;;;;;;3.09;97.95;99684.81;4172996;28;20040;-71
2023/12/10 05:40:08;;;;;;;;;;;;;;;3.10;98.06;99688.31;4172523;28;20019;-71
2023/12/10 05:42:12;;;;;;;;;;;;;;;3.09;98.31;99698.16;4155075;28;19964;-69
2023/12/10 05:44:14;;;;;;;;;;;;;;;3.11;98.22;99693.47;4173098;28;20008;-71
2023/12/10 05:46:16;;;;;;;;;;;;;;;3.12;98.11;99699.66;4172639;28;19933;-70
2023/12/10 05:48:20;;;;;;;;;;;;;;;3.14;98.24;99705.69;4173090;28;20003;-71
2023/12/10 05:50:22;;;;;;;;;;;;;;;3.15;98.08;99694.00;4172778;28;20019;-70
2023/12/10 05:52:24;;;;;;;;;;;;;;;3.16;98.07;99699.19;4156352;28;20032;-70
2023/12/10 05:54:25;;;;;;;;;;;;;;;3.17;98.21;99697.38;4172503;28;20427;-70
2023/12/10 05:56:27;;;;;;;;;;;;;;;3.16;98.15;99707.19;4173274;28;20363;-70
2023/12/10 05:58:31;;;;;;;;;;;;;;;3.19;98.36;99703.38;4172791;28;20019;-71
2023/12/10 06:00:33;;;;;;;;;;;;;;;3.19;98.24;99704.22;4172787;28;20012;-70
2023/12/10 06:02:35;;;;;;;;;;;;;;;3.20;98.43;99710.41;4171663;28;20020;-71
2023/12/10 06:04:37;;;;;;;;;;;;;;;3.23;98.10;99710.09;4172936;28;20032;-71
2023/12/10 06:06:38;;;;;;;;;;;;;;;3.24;97.93;99715.28;4172801;28;19925;-69
2023/12/10 06:08:40;;;;;;;;;;;;;;;3.27;97.80;99719.44;4173145;28;19964;-70
2023/12/10 06:10:42;;;;;;;;;;;;;;;3.27;97.92;99723.97;4171261;28;20027;-72
2023/12/10 06:12:43;;;;;;;;;;;;;;;3.29;97.85;99732.66;4155345;28;20024;-71
2023/12/10 06:14:47;;;;;;;;;;;;;;;3.30;97.77;99735.16;4172474;28;20036;-71
2023/12/10 06:16:49;;;;;;;;;;;;;;;3.30;97.71;99729.00;4172439;28;20016;-72
2023/12/10 06:18:51;;;;;;;;;;;;;;;3.32;97.92;99729.66;4154361;28;20029;-72
2023/12/10 06:20:53;;;;;;;;;;;;;;;3.32;97.97;99737.66;4171971;28;20020;-71
2023/12/10 06:22:55;;;;;;;;;;;;;;;3.33;97.53;99737.50;4172535;28;20492;-71
2023/12/10 06:24:57;;;;;;;;;;;;;;;3.34;97.54;99739.22;4172410;28;20059;-71
2023/12/10 06:26:59;;;;;;;;;;;;;;;3.34;97.52;99738.34;4172100;28;20016;-71
2023/12/10 06:29:01;;;;;;;;;;;;;;;3.34;97.69;99739.22;4172301;28;20048;-72
2023/12/10 06:31:05;;;;;;;;;;;;;;;3.35;97.60;99743.53;4172545;28;20019;-71
2023/12/10 06:33:07;;;;;;;;;;;;;;;3.36;97.72;99741.72;4171229;28;20060;-73
2023/12/10 06:35:09;;;;;;;;;;;;;;;3.36;97.65;99745.22;4172556;28;20339;-72
2023/12/10 06:37:11;;;;;;;;;;;;;;;3.35;97.84;99748.88;4171937;28;20015;-72
2023/12/10 06:39:13;;;;;;;;;;;;;;;3.37;97.98;99746.91;4172480;28;20439;-72
2023/12/10 06:41:15;;;;;;;;;;;;;;;3.38;97.95;99753.06;4170743;28;20024;-70
2023/12/10 06:43:17;;;;;;;;;;;;;;;3.39;97.60;99746.75;4171880;28;20651;-72
2023/12/10 06:45:20;;;;;;;;;;;;;;;3.37;98.08;99765.59;4171946;28;20024;-70
2023/12/10 06:47:23;;;;;;;;;;;;;;;3.38;98.09;99763.75;4171289;28;19929;-72
2023/12/10 06:49:25;;;;;;;;;;;;;;;3.39;98.07;99758.25;4136362;28;20020;-70
2023/12/10 06:51:27;;;;;;;;;;;;;;;3.39;97.76;99766.25;4171599;28;20023;-71
2023/12/10 06:53:31;;;;;;;;;;;;;;;3.40;97.83;99764.41;4171332;28;20008;-70
2023/12/10 06:55:33;;;;;;;;;;;;;;;3.40;97.81;99761.75;4171525;28;20040;-72
2023/12/10 06:57:35;;;;;;;;;;;;;;;3.40;97.85;99778.63;4172099;28;20011;-71
2023/12/10 06:59:37;;;;;;;;;;;;;;;3.41;98.15;99776.78;4171199;28;20060;-71
2023/12/10 07:01:39;;;;;;;;;;;;;;;3.41;97.92;99777.59;4171038;28;20016;-71
2023/12/10 07:03:42;;;;;;;;;;;;;;;3.43;97.86;99785.47;4167985;28;20007;-71
2023/12/10 07:05:44;;;;;;;;;;;;;;;3.43;97.92;99778.31;4170507;28;20016;-71
2023/12/10 07:07:46;;;;;;;;;;;;;;;3.43;97.81;99781.00;4171249;28;20020;-72
2023/12/10 07:09:48;;;;;;;;;;;;;;;3.43;97.75;99782.78;4170168;28;20024;-72
2023/12/10 07:11:51;;;;;;;;;;;;;;;3.42;98.13;99781.13;4154313;28;20093;-71
2023/12/10 07:13:53;;;;;;;;;;;;;;;3.42;98.08;99781.97;4168918;28;20376;-71
2023/12/10 07:15:56;;;;;;;;;;;;;;;3.43;98.26;99774.78;4169398;28;20446;-71
2023/12/10 07:17:58;;;;;;;;;;;;;;;3.43;97.89;99780.13;4169853;28;20029;-71
2023/12/10 07:20:01;;;;;;;;;;;;;;;3.42;97.92;99776.63;4154521;28;20347;-71
2023/12/10 07:22:03;;;;;;;;;;;;;;;3.44;97.88;99779.16;4171793;28;20016;-72
2023/12/10 07:24:05;;;;;;;;;;;;;;;3.43;98.30;99788.13;4170973;28;20012;-71
2023/12/10 07:26:08;;;;;;;;;;;;;;;3.40;98.45;99789.31;4171851;28;20015;-70
2023/12/10 07:28:10;;;;;;;;;;;;;;;3.40;98.35;99791.97;4169028;28;20028;-70
2023/12/10 07:30:13;;;;;;;;;;;;;;;3.40;98.59;99802.66;4168504;28;20024;-71
2023/12/10 07:32:15;;;;;;;;;;;;;;;3.41;98.71;99798.97;4171060;28;20040;-71
2023/12/10 07:34:17;;;;;;;;;;;;;;;3.41;98.42;99801.63;4171581;28;20023;-70
2023/12/10 07:36:20;;;;;;;;;;;;;;;3.42;98.68;99802.50;4170486;28;20016;-72
2023/12/10 07:38:22;;;;;;;;;;;;;;;3.43;98.62;99799.69;4152795;28;20032;-71
2023/12/10 07:40:24;;;;;;;;;;;;;;;3.45;98.45;99801.31;4170449;28;20335;-71
2023/12/10 07:42:26;;;;;;;;;;;;;;;3.46;98.15;99801.19;4169830;28;20055;-71
2023/12/10 07:44:28;;;;;;;;;;;;;;;3.47;98.21;99808.19;4169178;28;20029;-71
2023/12/10 07:46:30;;;;;;;;;;;;;;;3.48;98.25;99812.56;4168259;28;20367;-71
2023/12/10 07:48:33;;;;;;;;;;;;;;;3.49;97.99;99808.88;4170859;28;20020;-70
2023/12/10 07:50:35;;;;;;;;;;;;;;;3.50;97.55;99810.56;4169998;28;20032;-70
2023/12/10 07:52:38;;;;;;;;;;;;;;;3.52;97.62;99810.41;4170361;28;20510;-71
2023/12/10 07:54:40;;;;;;;;;;;;;;;3.53;97.61;99817.44;4169694;28;20023;-72
2023/12/10 07:56:42;;;;;;;;;;;;;;;3.53;97.36;99810.25;4168745;28;20475;-72
2023/12/10 07:58:44;;;;;;;;;;;;;;;3.54;97.09;99819.97;4166501;28;20028;-72
2023/12/10 08:00:47;;;;;;;;;;;;;;;3.57;96.92;99821.47;4169409;28;20019;-72
2023/12/10 08:02:49;;;;;;;;;;;;;;;3.58;96.51;99823.16;4169856;28;20024;-71
2023/12/10 08:04:51;;;;;;;;;;;;;;;3.61;96.15;99826.34;4170765;28;20012;-71
2023/12/10 08:06:53;;;;;;;;;;;;;;;3.64;95.70;99827.00;4170614;28;20028;-71
2023/12/10 08:08:56;;;;;;;;;;;;;;;3.64;95.79;99819.88;4168904;28;20350;-72
2023/12/10 08:10:58;;;;;;;;;;;;;;;3.66;95.31;99814.38;4168145;28;20024;-72
2023/12/10 08:13:00;;;;;;;;;;;;;;;3.67;95.04;99832.03;4169095;28;20016;-72
2023/12/10 08:15:02;;;;;;;;;;;;;;;3.68;95.18;99828.38;4169648;28;20495;-72
2023/12/10 08:17:03;;;;;;;;;;;;;;;3.70;94.60;99831.75;4170031;28;20015;-71
2023/12/10 08:19:05;;;;;;;;;;;;;;;3.71;94.61;99831.59;4170072;28;20023;-73
2023/12/10 08:21:08;;;;;;;;;;;;;;;3.72;94.44;99830.59;4168553;28;20011;-73
2023/12/10 08:23:10;;;;;;;;;;;;;;;3.75;94.38;99837.47;4171436;28;20023;-72
2023/12/10 08:25:14;;;;;;;;;;;;;;;3.77;93.92;99838.97;4168393;28;20020;-71
2023/12/10 08:27:16;;;;;;;;;;;;;;;3.79;94.11;99842.34;4169809;28;20011;-72
2023/12/10 08:29:18;;;;;;;;;;;;;;;3.81;94.00;99842.19;4170169;28;19964;-72
2023/12/10 08:31:20;;;;;;;;;;;;;;;3.84;93.85;99843.69;4168637;28;20019;-72
2023/12/10 08:33:22;;;;;;;;;;;;;;;3.85;93.68;99838.19;4167561;28;20012;-72
2023/12/10 08:35:24;;;;;;;;;;;;;;;3.86;93.84;99837.22;4170071;28;20023;-71
2023/12/10 08:37:25;;;;;;;;;;;;;;;3.89;93.81;99834.25;4169118;28;20369;-72
2023/12/10 08:39:27;;;;;;;;;;;;;;;3.90;93.45;99835.94;4169556;28;20019;-72
2023/12/10 08:41:31;;;;;;;;;;;;;;;3.92;93.43;99839.28;4167809;28;20028;-72
2023/12/10 08:43:33;;;;;;;;;;;;;;;3.94;93.42;99842.63;4168808;28;20019;-72
2023/12/10 08:45:35;;;;;;;;;;;;;;;3.97;93.45;99846.81;4168687;28;20012;-72
2023/12/10 08:47:36;;;;;;;;;;;;;;;4.00;93.50;99851.00;4166751;28;20812;-73
2023/12/10 08:49:38;;;;;;;;;;;;;;;4.00;93.20;99849.19;4168578;28;19929;-73
2023/12/10 08:51:40;;;;;;;;;;;;;;;4.03;93.21;99856.03;4168987;28;20043;-72
2023/12/10 08:53:42;;;;;;;;;;;;;;;4.04;93.39;99850.53;4167604;28;20673;-71
2023/12/10 08:55:44;;;;;;;;;;;;;;;4.06;93.33;99856.56;4167438;28;20020;-72
2023/12/10 08:57:48;;;;;;;;;;;;;;;4.09;93.47;99858.94;4168211;28;20040;-72
2023/12/10 08:59:49;;;;;;;;;;;;;;;4.10;93.74;99851.75;4166471;28;20044;-72
2023/12/10 09:01:53;;;;;;;;;;;;;;;4.13;93.83;99860.28;4168206;28;20023;-71
2023/12/10 09:03:55;;;;;;;;;;;;;;;4.15;93.96;99860.13;4153729;28;20020;-73
2023/12/10 09:06:01;;;;;;;;;;;;;;;4.18;94.13;99856.31;4172482;28;19929;-73
2023/12/10 09:08:03;;;;;;;;;;;;;;;4.20;94.23;99855.16;4171095;28;20032;-71
2023/12/10 09:10:06;;;;;;;;;;;;;;;4.22;94.47;99863.84;4170336;28;19987;-71
2023/12/10 09:12:08;;;;;;;;;;;;;;;4.24;94.76;99867.19;4171518;28;20066;-71
2023/12/10 09:14:12;;;;;;;;;;;;;;;4.27;94.81;99869.56;4172346;28;20012;-71
2023/12/10 09:16:15;;;;;;;;;;;;;;;4.28;94.67;99868.56;4173478;28;20477;-70
2023/12/10 09:18:17;;;;;;;;;;;;;;;4.30;94.56;99869.25;4173537;28;20020;-70
2023/12/10 09:20:19;;;;;;;;;;;;;;;4.32;94.85;99872.59;4173470;28;20020;-70
2023/12/10 09:22:21;;;;;;;;;;;;;;;4.36;95.02;99872.28;4164458;28;20025;-70
2023/12/10 09:24:23;;;;;;;;;;;;;;;4.32;94.76;99861.91;4169566;28;20008;-71
2023/12/10 09:26:25;;;;;;;;;;;;;;;4.40;95.20;99882.50;4170158;28;20417;-70
2023/12/10 09:28:27;;;;;;;;;;;;;;;4.42;95.14;99880.53;4170611;28;20032;-70
2023/12/10 09:30:30;;;;;;;;;;;;;;;4.43;95.21;99884.03;4170768;28;20482;-71
2023/12/10 09:32:32;;;;;;;;;;;;;;;4.46;95.13;99881.03;4170605;28;20024;-70
2023/12/10 09:34:34;;;;;;;;;;;;;;;4.48;95.57;99887.91;4171776;28;20012;-70
2023/12/10 09:36:36;;;;;;;;;;;;;;;4.49;95.72;99889.56;4172904;28;20020;-70
2023/12/10 09:38:43;;;;;;;;;;;;;;;4.52;95.51;99888.41;4172825;28;20023;-71
2023/12/10 09:40:45;;;;;;;;;;;;;;;4.54;95.75;99883.75;4173080;28;20028;-70
2023/12/10 09:42:48;;;;;;;;;;;;;;;4.57;96.04;99882.59;4172512;28;20012;-71
2023/12/10 09:44:50;;;;;;;;;;;;;;;4.59;95.95;99886.81;4172875;28;20348;-71
2023/12/10 09:46:59;;;;;;;;;;;;;;;4.61;95.95;99886.66;4172260;28;20016;-70
2023/12/10 09:49:01;;;;;;;;;;;;;;;4.63;96.19;99888.16;4173391;28;20024;-72
2023/12/10 09:51:04;;;;;;;;;;;;;;;4.64;96.29;99889.81;4172899;28;20025;-71
2023/12/10 09:53:06;;;;;;;;;;;;;;;4.67;96.42;99902.88;4171886;28;20015;-72
2023/12/10 09:55:07;;;;;;;;;;;;;;;4.72;96.79;99890.84;4172788;28;20016;-71
2023/12/10 09:57:11;;;;;;;;;;;;;;;4.71;96.78;99887.34;4173474;28;20478;-71
2023/12/10 09:59:13;;;;;;;;;;;;;;;4.73;96.69;99889.88;4172376;28;20051;-70
2023/12/10 10:01:14;;;;;;;;;;;;;;;4.75;97.27;99893.22;4172843;28;20394;-70
2023/12/10 10:03:18;;;;;;;;;;;;;;;4.77;97.27;99885.88;4173011;28;20027;-72
2023/12/10 10:05:20;;;;;;;;;;;;;;;4.78;97.17;99899.09;4173366;28;20614;-71
2023/12/10 10:07:22;;;;;;;;;;;;;;;4.81;97.45;99890.75;4172494;28;20055;-69
2023/12/10 10:09:24;;;;;;;;;;;;;;;4.82;97.66;99895.09;4172552;28;20024;-72
2023/12/10 10:11:26;;;;;;;;;;;;;;;4.84;97.74;99892.25;4172691;28;19926;-70
2023/12/10 10:13:28;;;;;;;;;;;;;;;4.85;97.93;99894.75;4173019;28;20039;-71
2023/12/10 10:15:30;;;;;;;;;;;;;;;4.89;98.34;99884.59;4171801;28;20015;-71
2023/12/10 10:17:33;;;;;;;;;;;;;;;4.91;98.47;99905.84;4139269;28;20025;-71
2023/12/10 10:19:36;;;;;;;;;;;;;;;4.93;98.81;99901.16;4154520;28;20486;-71
2023/12/10 10:21:38;;;;;;;;;;;;;;;4.94;98.85;99898.31;4172052;28;20491;-71
2023/12/10 10:23:41;;;;;;;;;;;;;;;4.96;99.03;99893.63;4172211;28;20019;-70
2023/12/10 10:25:43;;;;;;;;;;;;;;;4.97;99.48;99906.03;4172687;28;20023;-71
2023/12/10 10:27:45;;;;;;;;;;;;;;;5.00;99.36;99899.50;4172329;28;20447;-71
2023/12/10 10:29:48;;;;;;;;;;;;;;;5.02;99.40;99900.19;4171791;28;20027;-72
2023/12/10 10:31:50;;;;;;;;;;;;;;;5.04;99.33;99900.88;4170788;28;20055;-70
2023/12/10 10:33:52;;;;;;;;;;;;;;;5.04;99.58;99898.19;4172616;28;20011;-71
2023/12/10 10:35:56;;;;;;;;;;;;;;;5.07;99.74;99910.41;4172833;28;20011;-70
2023/12/10 10:37:58;;;;;;;;;;;;;;;5.09;99.50;99895.03;4171874;28;20454;-70
2023/12/10 10:40:00;;;;;;;;;;;;;;;5.09;99.59;99887.81;4171896;28;20019;-71
2023/12/10 10:42:08;;;;;;;;;;;;;;;5.11;99.67;99895.69;4171612;28;20031;-71
2023/12/10 10:44:10;;;;;;;;;;;;;;;5.12;99.71;99900.88;4172329;28;20031;-71
2023/12/10 10:46:16;;;;;;;;;;;;;;;5.13;100.00;99891.88;4171514;28;20023;-72
2023/12/10 10:48:18;;;;;;;;;;;;;;;5.15;99.89;99895.22;4172049;28;20020;-72
2023/12/10 10:50:20;;;;;;;;;;;;;;;5.14;99.98;99882.84;4154209;28;20008;-71
2023/12/10 10:52:24;;;;;;;;;;;;;;;5.17;99.71;99908.44;4172212;28;20625;-71
2023/12/10 10:54:26;;;;;;;;;;;;;;;5.19;99.64;99896.56;4171729;28;20032;-71
2023/12/10 10:56:28;;;;;;;;;;;;;;;5.21;99.61;99907.13;4172097;28;20027;-71
2023/12/10 10:58:30;;;;;;;;;;;;;;;5.22;100.00;99903.44;4172453;28;20457;-71
2023/12/10 11:00:32;;;;;;;;;;;;;;;5.23;99.76;99900.59;4172118;28;20016;-71
2023/12/10 11:02:34;;;;;;;;;;;;;;;5.24;100.00;99893.41;4171568;28;20330;-71
2023/12/10 11:04:39;;;;;;;;;;;;;;;5.25;100.00;99908.47;4171459;28;20032;-71